createdAt,value
2022-11-17T00:01:23.728Z,96536.16
2022-11-17T00:04:27.548Z,96533.56
2022-11-17T00:07:29.413Z,96537.16
2022-11-17T00:10:31.684Z,96538.13
2022-11-17T00:13:51.995Z,96528.38
2022-11-17T00:16:53.742Z,96531.13
2022-11-17T00:20:14.219Z,96542.69
2022-11-17T00:23:16.031Z,96539.09
2022-11-17T00:26:19.877Z,96538.63
2022-11-17T00:29:21.668Z,96531.31
2022-11-17T00:32:41.994Z,96531.59
2022-11-17T00:35:43.796Z,96517.75
2022-11-17T00:38:45.536Z,96521.53
2022-11-17T00:41:47.380Z,96528.03
2022-11-17T00:44:49.104Z,96525.78
2022-11-17T00:47:50.822Z,96527.06
2022-11-17T00:50:52.565Z,96525.78
2022-11-17T00:53:54.359Z,96531.31
2022-11-17T00:56:56.333Z,96530.00
2022-11-17T00:59:58.122Z,96520.22
2022-11-17T01:02:59.908Z,96517.94
2022-11-17T01:06:09.373Z,96514.66
2022-11-17T01:09:12.591Z,96525.13
2022-11-17T01:12:14.249Z,96531.16
2022-11-17T01:15:16.022Z,96528.38
2022-11-17T01:18:17.744Z,96525.78
2022-11-17T01:21:22.390Z,96529.19
2022-11-17T01:24:24.192Z,96529.19
2022-11-17T01:27:25.875Z,96530.66
2022-11-17T01:30:27.601Z,96525.44
2022-11-17T01:33:29.346Z,96527.56
2022-11-17T01:36:52.408Z,96522.81
2022-11-17T01:39:54.113Z,96521.06
2022-11-17T01:42:55.759Z,96517.28
2022-11-17T01:45:57.934Z,96516.63
2022-11-17T01:49:24.430Z,96517.28
2022-11-17T01:52:26.391Z,96509.78
2022-11-17T01:55:33.554Z,96516.13
2022-11-17T01:58:36.858Z,96511.06
2022-11-17T02:01:56.159Z,96501.47
2022-11-17T02:05:11.803Z,96503.75
2022-11-17T02:08:14.615Z,96494.78
2022-11-17T02:11:18.826Z,96497.38
2022-11-17T02:14:20.477Z,96493.16
2022-11-17T02:17:35.154Z,96491.00
2022-11-17T02:20:58.225Z,96490.88
2022-11-17T02:24:37.553Z,96488.59
2022-11-17T02:28:17.385Z,96489.41
2022-11-17T02:31:40.793Z,96480.91
2022-11-17T02:34:46.817Z,96492.00
2022-11-17T02:38:09.906Z,96481.56
2022-11-17T02:41:36.100Z,96484.81
2022-11-17T02:44:40.037Z,96469.69
2022-11-17T02:47:43.830Z,96474.56
2022-11-17T02:50:47.028Z,96465.78
2022-11-17T02:53:54.650Z,96461.50
2022-11-17T02:56:56.350Z,96462.19
2022-11-17T03:00:05.044Z,96464.63
2022-11-17T03:03:19.049Z,96465.59
2022-11-17T03:06:51.837Z,96463.47
2022-11-17T03:10:14.942Z,96454.34
2022-11-17T03:13:41.009Z,96466.41
2022-11-17T03:16:55.372Z,96463.34
2022-11-17T03:20:04.831Z,96463.81
2022-11-17T03:23:38.481Z,96460.06
2022-11-17T03:26:44.958Z,96474.56
2022-11-17T03:29:49.863Z,96469.19
2022-11-17T03:32:58.889Z,96465.44
2022-11-17T03:36:21.961Z,96476.84
2022-11-17T03:39:29.641Z,96477.31
2022-11-17T03:42:34.161Z,96472.59
2022-11-17T03:45:39.150Z,96485.63
2022-11-17T03:49:02.762Z,96474.88
2022-11-17T03:52:05.148Z,96476.22
2022-11-17T03:55:08.028Z,96475.53
2022-11-17T03:58:13.036Z,96477.00
2022-11-17T04:01:15.208Z,96478.47
2022-11-17T04:04:18.932Z,96479.44
2022-11-17T04:07:21.099Z,96478.94
2022-11-17T04:10:25.838Z,96485.59
2022-11-17T04:13:48.806Z,96480.41
2022-11-17T04:16:50.491Z,96483.50
2022-11-17T04:19:52.194Z,96484.31
2022-11-17T04:23:08.781Z,96483.97
2022-11-17T04:26:29.616Z,96480.56
2022-11-17T04:29:31.628Z,96478.78
2022-11-17T04:32:33.364Z,96480.41
2022-11-17T04:35:35.211Z,96486.09
2022-11-17T04:38:37.342Z,96482.38
2022-11-17T04:41:54.937Z,96479.44
2022-11-17T04:44:56.635Z,96478.63
2022-11-17T04:47:58.335Z,96483.34
2022-11-17T04:51:00.047Z,96486.63
2022-11-17T04:54:02.438Z,96491.97
2022-11-17T04:57:04.144Z,96491.28
2022-11-17T05:00:06.660Z,96496.59
2022-11-17T05:03:08.599Z,96503.66
2022-11-17T05:06:12.201Z,96505.91
2022-11-17T05:09:15.875Z,96503.50
2022-11-17T05:12:35.817Z,96490.47
2022-11-17T05:15:56.277Z,96479.41
2022-11-17T05:18:58.234Z,96486.56
2022-11-17T05:22:00.292Z,96483.63
2022-11-17T05:25:02.281Z,96484.56
2022-11-17T05:28:04.128Z,96474.44
2022-11-17T05:31:06.204Z,96477.97
2022-11-17T05:34:09.619Z,96492.94
2022-11-17T05:37:11.585Z,96493.56
2022-11-17T05:40:13.329Z,96493.41
2022-11-17T05:43:15.033Z,96495.41
2022-11-17T05:46:18.331Z,96504.31
2022-11-17T05:49:20.263Z,96503.66
2022-11-17T05:52:21.983Z,96512.09
2022-11-17T05:55:23.859Z,96507.28
2022-11-17T05:58:27.588Z,96509.38
2022-11-17T06:01:30.105Z,96514.75
2022-11-17T06:04:32.961Z,96521.25
2022-11-17T06:07:36.680Z,96521.88
2022-11-17T06:10:38.680Z,96523.84
2022-11-17T06:13:40.448Z,96528.75
2022-11-17T06:16:44.344Z,96532.09
2022-11-17T06:19:51.911Z,96531.19
2022-11-17T06:22:56.365Z,96536.56
2022-11-17T06:25:59.216Z,96536.25
2022-11-17T06:29:03.158Z,96536.56
2022-11-17T06:32:05.155Z,96538.47
2022-11-17T06:35:07.979Z,96538.00
2022-11-17T06:38:09.742Z,96548.22
2022-11-17T06:41:12.153Z,96548.03
2022-11-17T06:44:14.303Z,96547.84
2022-11-17T06:47:17.715Z,96552.66
2022-11-17T06:50:19.977Z,96547.25
2022-11-17T06:53:26.604Z,96529.44
2022-11-17T06:56:28.776Z,96530.19
2022-11-17T06:59:30.879Z,96535.19
2022-11-17T07:02:33.007Z,96533.88
2022-11-17T07:05:36.583Z,96536.25
2022-11-17T07:08:39.255Z,96533.44
2022-11-17T07:11:41.447Z,96531.34
2022-11-17T07:14:43.644Z,96538.13
2022-11-17T07:17:45.676Z,96540.28
2022-11-17T07:20:48.496Z,96549.06
2022-11-17T07:23:50.499Z,96543.84
2022-11-17T07:26:52.706Z,96552.72
2022-11-17T07:29:57.959Z,96547.81
2022-11-17T07:33:01.171Z,96565.63
2022-11-17T07:36:11.445Z,96564.19
2022-11-17T07:39:20.981Z,96552.81
2022-11-17T07:42:24.135Z,96551.78
2022-11-17T07:45:31.941Z,96559.19
2022-11-17T07:48:35.441Z,96560.31
2022-11-17T07:51:37.931Z,96551.81
2022-11-17T07:54:40.753Z,96560.38
2022-11-17T07:57:44.683Z,96564.09
2022-11-17T08:00:46.699Z,96559.72
2022-11-17T08:03:48.787Z,96546.59
2022-11-17T08:06:50.848Z,96549.53
2022-11-17T08:09:52.818Z,96544.00
2022-11-17T08:12:55.183Z,96550.16
2022-11-17T08:16:00.198Z,96538.06
2022-11-17T08:19:04.385Z,96526.53
2022-11-17T08:22:06.848Z,96529.66
2022-11-17T08:25:09.532Z,96533.94
2022-11-17T08:28:12.393Z,96546.97
2022-11-17T08:31:14.859Z,96552.50
2022-11-17T08:34:17.163Z,96543.38
2022-11-17T08:37:19.144Z,96545.16
2022-11-17T08:40:21.257Z,96557.22
2022-11-17T08:43:23.411Z,96552.19
2022-11-17T08:46:28.638Z,96556.09
2022-11-17T08:49:31.221Z,96546.13
2022-11-17T08:52:33.292Z,96545.97
2022-11-17T08:55:40.977Z,96554.78
2022-11-17T08:58:45.084Z,96556.25
2022-11-17T09:01:47.577Z,96556.72
2022-11-17T09:04:51.232Z,96556.41
2022-11-17T09:07:54.004Z,96564.56
2022-11-17T09:10:56.766Z,96563.25
2022-11-17T09:13:59.601Z,96567.66
2022-11-17T09:17:01.973Z,96570.13
2022-11-17T09:20:04.416Z,96572.06
2022-11-17T09:23:07.320Z,96579.25
2022-11-17T09:26:12.163Z,96575.81
2022-11-17T09:29:14.469Z,96591.50
2022-11-17T09:32:17.337Z,96582.66
2022-11-17T09:35:20.176Z,96583.50
2022-11-17T09:38:22.314Z,96594.25
2022-11-17T09:41:34.026Z,96601.25
2022-11-17T09:44:42.578Z,96602.75
2022-11-17T09:47:58.533Z,96607.81
2022-11-17T09:51:12.989Z,96612.69
2022-11-17T09:54:30.712Z,96616.75
2022-11-17T09:57:39.958Z,96602.41
2022-11-17T10:00:44.010Z,96607.63
2022-11-17T10:03:48.732Z,96613.78
2022-11-17T10:06:51.328Z,96607.38
2022-11-17T10:09:54.879Z,96614.75
2022-11-17T10:13:06.466Z,96612.19
2022-11-17T10:16:13.037Z,96605.50
2022-11-17T10:19:27.452Z,96595.81
2022-11-17T10:22:34.860Z,96597.09
2022-11-17T10:25:41.165Z,96605.28
2022-11-17T10:28:43.404Z,96608.91
2022-11-17T10:31:46.878Z,96606.72
2022-11-17T10:34:49.058Z,96600.94
2022-11-17T10:38:03.475Z,96601.06
2022-11-17T10:41:14.988Z,96602.47
2022-11-17T10:44:24.583Z,96597.84
2022-11-17T10:47:39.703Z,96588.91
2022-11-17T10:50:55.368Z,96583.97
2022-11-17T10:54:14.038Z,96583.34
2022-11-17T10:57:22.855Z,96586.19
2022-11-17T11:00:25.397Z,96582.44
2022-11-17T11:03:33.018Z,96573.72
2022-11-17T11:06:36.007Z,96576.47
2022-11-17T11:10:17.091Z,96586.16
2022-11-17T11:13:25.818Z,96600.78
2022-11-17T11:16:30.421Z,96616.50
2022-11-17T11:19:33.240Z,96606.88
2022-11-17T11:22:54.223Z,96609.72
2022-11-17T11:26:12.073Z,96587.09
2022-11-17T11:29:30.377Z,96582.72
2022-11-17T11:32:50.964Z,96590.84
2022-11-17T11:36:24.180Z,96587.28
2022-11-17T11:39:44.941Z,96588.44
2022-11-17T11:43:02.428Z,96590.28
2022-11-17T11:46:09.305Z,96595.34
2022-11-17T11:49:16.880Z,96587.50
2022-11-17T11:52:25.044Z,96580.13
2022-11-17T11:55:35.017Z,96575.97
2022-11-17T11:58:42.930Z,96583.22
2022-11-17T12:02:11.321Z,96583.19
2022-11-17T12:05:19.778Z,96592.28
2022-11-17T12:08:39.800Z,96586.94
2022-11-17T12:12:00.992Z,96599.03
2022-11-17T12:15:08.262Z,96608.00
2022-11-17T12:18:13.281Z,96614.56
2022-11-17T12:21:23.654Z,96607.06
2022-11-17T12:24:33.757Z,96604.66
2022-11-17T12:27:35.892Z,96603.72
2022-11-17T12:30:44.289Z,96594.97
2022-11-17T12:33:52.186Z,96590.53
2022-11-17T12:37:13.261Z,96586.69
2022-11-17T12:40:41.771Z,96593.63
2022-11-17T12:43:43.923Z,96594.81
2022-11-17T12:46:48.145Z,96599.81
2022-11-17T12:50:09.258Z,96601.47
2022-11-17T12:53:14.543Z,96606.41
2022-11-17T12:56:28.467Z,96608.75
2022-11-17T12:59:58.482Z,96612.03
2022-11-17T13:03:10.228Z,96620.50
2022-11-17T13:09:38.108Z,96619.75
2022-11-17T13:12:40.025Z,96609.91
2022-11-17T13:15:43.414Z,96596.75
2022-11-17T13:18:46.410Z,96608.34
2022-11-17T13:21:48.328Z,96608.47
2022-11-17T13:24:53.458Z,96620.94
2022-11-17T13:27:59.762Z,96612.47
2022-11-17T13:31:05.251Z,96622.59
2022-11-17T13:34:17.979Z,96632.03
2022-11-17T13:37:26.204Z,96626.53
2022-11-17T13:40:28.621Z,96625.88
2022-11-17T13:43:38.091Z,96615.44
2022-11-17T13:46:42.861Z,96616.44
2022-11-17T13:49:44.876Z,96606.00
2022-11-17T13:52:47.450Z,96599.47
2022-11-17T13:55:50.830Z,96601.44
2022-11-17T13:58:53.098Z,96600.28
2022-11-17T14:02:17.435Z,96606.97
2022-11-17T14:05:23.416Z,96614.16
2022-11-17T14:08:28.893Z,96616.09
2022-11-17T14:11:31.584Z,96611.69
2022-11-17T14:14:45.562Z,96600.75
2022-11-17T14:18:01.597Z,96599.78
2022-11-17T14:21:07.967Z,96605.16
2022-11-17T14:24:12.665Z,96610.38
2022-11-17T14:27:35.976Z,96601.44
2022-11-17T14:30:37.892Z,96606.97
2022-11-17T14:33:40.761Z,96594.25
2022-11-17T14:36:42.883Z,96601.78
2022-11-17T14:39:45.181Z,96597.84
2022-11-17T14:42:47.373Z,96604.03
2022-11-17T14:45:50.541Z,96607.63
2022-11-17T14:48:53.465Z,96615.91
2022-11-17T14:51:57.490Z,96619.31
2022-11-17T14:55:00.923Z,96617.22
2022-11-17T14:58:03.174Z,96604.13
2022-11-17T15:01:18.947Z,96588.31
2022-11-17T15:04:48.745Z,96585.03
2022-11-17T15:07:43.790Z,96598.38
2022-11-17T15:10:46.648Z,96599.63
2022-11-17T15:13:50.011Z,96601.91
2022-11-17T15:16:55.153Z,96603.03
2022-11-17T15:19:57.511Z,96604.66
2022-11-17T15:23:03.259Z,96609.06
2022-11-17T15:26:08.414Z,96597.66
2022-11-17T15:29:17.821Z,96600.56
2022-11-17T15:32:20.837Z,96595.53
2022-11-17T15:35:22.929Z,96592.81
2022-11-17T15:38:25.271Z,96595.34
2022-11-17T15:41:32.844Z,96597.97
2022-11-17T15:44:35.347Z,96593.13
2022-11-17T15:47:38.015Z,96586.28
2022-11-17T15:50:40.640Z,96586.91
2022-11-17T15:53:44.350Z,96591.00
2022-11-17T15:56:46.507Z,96612.16
2022-11-17T15:59:49.262Z,96607.63
2022-11-17T16:02:57.244Z,96622.78
2022-11-17T16:06:00.996Z,96622.41
2022-11-17T16:09:04.676Z,96616.84
2022-11-17T16:12:06.925Z,96619.09
2022-11-17T16:15:09.648Z,96620.22
2022-11-17T16:18:12.319Z,96619.13
2022-11-17T16:21:15.740Z,96626.31
2022-11-17T16:24:21.573Z,96624.38
2022-11-17T16:27:23.739Z,96625.75
2022-11-17T16:30:34.203Z,96625.06
2022-11-17T16:33:42.491Z,96618.06
2022-11-17T16:36:45.410Z,96615.59
2022-11-17T16:39:48.232Z,96614.91
2022-11-17T16:42:50.534Z,96625.63
2022-11-17T16:45:52.808Z,96637.53
2022-11-17T16:48:56.049Z,96636.53
2022-11-17T16:51:58.413Z,96634.31
2022-11-17T16:55:04.839Z,96650.84
2022-11-17T16:58:08.079Z,96635.69
2022-11-17T17:01:25.018Z,96626.97
2022-11-17T17:04:31.379Z,96620.88
2022-11-17T17:07:33.839Z,96626.22
2022-11-17T17:10:36.044Z,96634.72
2022-11-17T17:13:38.839Z,96639.88
2022-11-17T17:16:41.911Z,96634.97
2022-11-17T17:19:43.896Z,96643.91
2022-11-17T17:22:45.854Z,96636.81
2022-11-17T17:25:47.937Z,96632.69
2022-11-17T17:28:52.359Z,96644.72
2022-11-17T17:31:54.582Z,96640.09
2022-11-17T17:34:58.669Z,96628.06
2022-11-17T17:38:01.036Z,96617.16
2022-11-17T17:41:14.823Z,96618.88
2022-11-17T17:44:19.859Z,96611.28
2022-11-17T17:47:23.993Z,96620.69
2022-11-17T17:50:27.207Z,96625.81
2022-11-17T17:53:29.791Z,96624.25
2022-11-17T17:56:34.178Z,96626.09
2022-11-17T17:59:36.406Z,96620.38
2022-11-17T18:02:38.904Z,96618.22
2022-11-17T18:05:44.308Z,96630.63
2022-11-17T18:08:47.076Z,96622.69
2022-11-17T18:11:51.180Z,96625.22
2022-11-17T18:14:53.664Z,96619.41
2022-11-17T18:17:55.802Z,96624.97
2022-11-17T18:21:01.386Z,96622.81
2022-11-17T18:24:04.646Z,96617.69
2022-11-17T18:27:07.830Z,96614.59
2022-11-17T18:30:11.247Z,96598.19
2022-11-17T18:33:14.953Z,96598.41
2022-11-17T18:36:17.787Z,96607.38
2022-11-17T18:39:23.613Z,96619.09
2022-11-17T18:42:26.035Z,96625.00
2022-11-17T18:45:29.853Z,96622.75
2022-11-17T18:48:34.913Z,96621.66
2022-11-17T18:51:37.876Z,96626.56
2022-11-17T18:54:40.415Z,96628.22
2022-11-17T18:57:46.153Z,96630.66
2022-11-17T19:00:50.029Z,96630.34
2022-11-17T19:03:53.812Z,96633.63
2022-11-17T19:06:56.278Z,96635.25
2022-11-17T19:09:59.679Z,96636.19
2022-11-17T19:13:02.354Z,96632.63
2022-11-17T19:16:10.763Z,96626.75
2022-11-17T19:19:15.632Z,96615.66
2022-11-17T19:22:38.859Z,96615.00
2022-11-17T19:25:43.200Z,96618.25
2022-11-17T19:28:46.085Z,96621.22
2022-11-17T19:31:51.381Z,96638.66
2022-11-17T19:34:54.214Z,96629.03
2022-11-17T19:37:58.419Z,96639.09
2022-11-17T19:41:06.285Z,96638.16
2022-11-17T19:44:09.638Z,96633.63
2022-11-17T19:47:13.604Z,96626.44
2022-11-17T19:50:19.192Z,96636.56
2022-11-17T19:53:22.252Z,96631.34
2022-11-17T19:56:25.780Z,96627.06
2022-11-17T19:59:29.138Z,96628.09
2022-11-17T20:02:31.357Z,96629.84
2022-11-17T20:05:33.819Z,96636.25
2022-11-17T20:08:36.389Z,96634.13
2022-11-17T20:11:40.347Z,96633.00
2022-11-17T20:14:44.856Z,96642.44
2022-11-17T20:17:46.999Z,96631.69
2022-11-17T20:20:51.806Z,96630.41
2022-11-17T20:23:55.203Z,96632.84
2022-11-17T20:26:58.166Z,96629.59
2022-11-17T20:30:01.319Z,96624.69
2022-11-17T20:33:03.880Z,96630.66
2022-11-17T20:36:07.386Z,96635.72
2022-11-17T20:39:09.585Z,96631.41
2022-11-17T20:42:14.054Z,96625.72
2022-11-17T20:45:16.981Z,96619.03
2022-11-17T20:48:20.293Z,96610.09
2022-11-17T20:51:24.237Z,96607.50
2022-11-17T20:54:26.390Z,96605.91
2022-11-17T20:57:28.750Z,96608.69
2022-11-17T21:00:30.732Z,96607.81
2022-11-17T21:03:32.814Z,96608.19
2022-11-17T21:06:34.769Z,96608.56
2022-11-17T21:09:37.091Z,96604.91
2022-11-17T21:12:39.840Z,96598.63
2022-11-17T21:16:04.872Z,96598.63
2022-11-17T21:19:07.703Z,96602.59
2022-11-17T21:22:09.966Z,96599.69
2022-11-17T21:25:12.075Z,96598.22
2022-11-17T21:28:14.139Z,96600.00
2022-11-17T21:31:18.885Z,96600.34
2022-11-17T21:34:20.806Z,96613.72
2022-11-17T21:37:24.649Z,96614.38
2022-11-17T21:40:26.747Z,96613.56
2022-11-17T21:43:29.379Z,96609.53
2022-11-17T21:46:33.337Z,96612.00
2022-11-17T21:49:35.124Z,96606.91
2022-11-17T21:52:36.965Z,96602.53
2022-11-17T21:55:38.930Z,96599.13
2022-11-17T21:58:41.447Z,96603.69
2022-11-17T22:01:43.459Z,96599.72
2022-11-17T22:04:45.733Z,96602.97
2022-11-17T22:07:47.480Z,96607.50
2022-11-17T22:10:49.385Z,96601.41
2022-11-17T22:13:51.348Z,96604.75
2022-11-17T22:16:55.444Z,96599.56
2022-11-17T22:19:57.197Z,96598.31
2022-11-17T22:22:59.131Z,96600.44
2022-11-17T22:26:03.380Z,96601.84
2022-11-17T22:29:06.385Z,96604.78
2022-11-17T22:32:08.342Z,96607.69
2022-11-17T22:35:10.153Z,96615.81
2022-11-17T22:38:15.559Z,96596.41
2022-11-17T22:41:19.088Z,96601.53
2022-11-17T22:44:20.946Z,96596.72
2022-11-17T22:47:22.879Z,96597.88
2022-11-17T22:50:24.651Z,96601.97
2022-11-17T22:53:27.087Z,96600.03
2022-11-17T22:56:29.072Z,96589.94
2022-11-17T22:59:30.821Z,96595.31
2022-11-17T23:02:32.581Z,96592.09
2022-11-17T23:05:34.340Z,96591.28
2022-11-17T23:08:36.511Z,96581.50
2022-11-17T23:11:38.911Z,96583.31
2022-11-17T23:14:40.645Z,96583.94
2022-11-17T23:17:42.963Z,96578.72
2022-11-17T23:20:44.852Z,96577.91
2022-11-17T23:23:46.745Z,96578.09
2022-11-17T23:26:48.652Z,96578.41
2022-11-17T23:29:50.532Z,96585.41
2022-11-17T23:32:55.838Z,96579.56
2022-11-17T23:35:58.026Z,96579.88
2022-11-17T23:38:59.756Z,96577.13
2022-11-17T23:42:01.566Z,96569.44
2022-11-17T23:45:03.631Z,96567.84
2022-11-17T23:48:05.500Z,96560.16
2022-11-17T23:51:09.172Z,96571.69
2022-11-17T23:54:12.408Z,96568.13
2022-11-17T23:57:14.052Z,96560.94
